Latest Weather Observations for Coober Pedy Airport

IDS60801

Issued at 5:01 am CDT Monday 20 February 2017 (issued every 30 minutes, with the page automatically refreshed every 10 minutes)

About weather observations | Map of weather stations | Latest weather observations for SA | Other Formats
Station Details ID: 016090 Name: COOBER PEDY AIRPORT Lat: -29.03 Lon: 134.72 Height: 225.0 m
Data from the previous 72 hours. | See also: Recent months at Coober Pedy Airport
Date/Time
CDT
Temp
°C
App
Temp
°C
Dew
Point
°C
Rel
Hum
%
Delta-T
°C
Wind Press
QNH
hPa
Press
MSL
hPa
Rain since
9am
mm
Dir  Spd
km/h
Gust
km/h
Spd
kts
Gust
kts
20/05:00am 16.2 11.6 6.3 52 4.9 SSE 20 22 11 12 1017.2 1015.8 0.0
20/04:30am 16.5 12.3 5.5 48 5.3 SSE 17 20 9 11 1017.2 1015.8 0.0
20/04:00am 16.9 12.2 5.2 46 5.7 SSE 19 22 10 12 1017.1 1015.7 0.0
20/03:30am 17.0 12.5 4.3 43 6.0 S 17 19 9 10 1017.4 1015.9 0.0
20/03:00am 16.8 12.8 2.8 39 6.4 S 13 15 7 8 1017.2 1015.8 0.0
20/02:30am 17.3 12.5 2.5 37 6.8 S 17 19 9 10 1017.2 1015.8 0.0
20/02:00am 17.7 14.0 2.5 36 7.0 SE 11 13 6 7 1017.0 1015.6 0.0
20/01:30am 18.0 14.3 2.3 35 7.2 SE 11 13 6 7 1017.2 1015.8 0.0
20/01:00am 18.3 15.0 2.2 34 7.4 SE 9 11 5 6 1017.5 1016.0 0.0
20/12:30am 19.1 15.4 2.5 33 7.7 SE 11 15 6 8 1017.6 1016.1 0.0
20/12:00am 20.3 16.0 3.1 32 8.2 SE 15 22 8 12 1017.6 1016.1 0.0
 
Date/Time
CDT
Temp
°C
App
Temp
°C
Dew
Point
°C
Rel
Hum
%
Delta-T
°C
Wind Press
QNH
hPa
Press
MSL
hPa
Rain since
9am
mm
Dir  Spd
km/h
Gust
km/h
Spd
kts
Gust
kts
19/11:30pm 20.3 16.3 2.6 31 8.3 SSE 13 13 7 7 1017.5 1016.0 0.0
19/11:00pm 20.7 16.6 2.5 30 8.6 SSE 13 13 7 7 1017.5 1016.0 0.0
19/10:30pm 21.2 17.5 2.5 29 8.8 SSE 11 13 6 7 1017.6 1016.1 0.0
19/10:00pm 22.0 17.6 2.7 28 9.2 S 15 17 8 9 1017.4 1015.9 0.0
19/09:30pm 22.6 17.8 2.7 27 9.6 S 17 20 9 11 1017.2 1015.8 0.0
19/09:00pm 23.1 17.8 3.1 27 9.7 S 20 24 11 13 1016.9 1015.5 0.0
19/08:30pm 23.6 17.9 3.0 26 10.0 S 22 30 12 16 1016.6 1015.2 0.0
19/08:00pm 24.2 18.8 2.4 24 10.5 S 20 28 11 15 1016.5 1015.1 0.0
19/07:30pm 24.8 18.5 1.7 22 11.1 S 24 30 13 16 1016.3 1014.9 0.0
19/07:00pm 24.8 19.3 1.7 22 11.1 S 20 30 11 16 1016.1 1014.7 0.0
19/06:30pm 24.9 18.9 1.1 21 11.3 S 22 30 12 16 1016.1 1014.7 0.0
19/06:00pm 25.0 19.5 1.8 22 11.1 S 20 32 11 17 1016.1 1014.7 0.0
19/05:30pm 25.4 20.3 2.8 23 11.1 S 19 28 10 15 1016.4 1015.0 0.0
19/05:00pm 24.3 18.8 1.9 23 10.7 S 20 32 11 17 1016.6 1015.2 0.0
19/04:30pm 24.0 18.7 2.8 25 10.3 SSW 20 28 11 15 1016.8 1015.4 0.0
19/04:00pm 24.7 19.5 3.4 25 10.5 S 20 37 11 20 1017.1 1015.7 0.0
19/03:30pm 24.3 18.2 3.0 25 10.4 S 24 33 13 18 1017.6 1016.1 0.0
19/03:00pm 22.5 17.7 2.6 27 9.5 SSW 17 33 9 18 1017.9 1016.4 0.0
19/02:30pm 21.7 17.0 2.9 29 9.0 S 17 26 9 14 1018.5 1017.0 0.0
19/02:00pm 21.6 16.0 3.3 30 8.8 SSW 22 35 12 19 1019.0 1017.5 0.0
19/01:30pm 21.8 16.7 3.0 29 9.0 S 19 37 10 20 1019.4 1017.9 0.0
19/01:00pm 20.6 15.4 3.3 32 8.3 SSW 20 32 11 17 1019.7 1018.2 0.0
19/12:30pm 19.4 14.9 4.0 36 7.4 S 17 26 9 14 1020.2 1018.8 0.0
19/12:00pm 19.0 13.4 3.6 36 7.3 S 22 30 12 16 1020.4 1019.0 0.0
19/11:30am 17.9 12.9 3.4 38 6.8 S 19 32 10 17 1020.7 1019.3 0.0
19/11:00am 18.7 13.9 4.8 40 6.8 S 19 30 10 16 1021.0 1019.6 0.0
19/10:30am 17.1 11.6 4.1 42 6.1 S 22 32 12 17 1020.8 1019.4 0.0
19/10:00am 17.2 11.4 4.5 43 6.1 SSE 24 32 13 17 1020.7 1019.3 0.0
19/09:30am 16.1 11.1 6.5 53 4.7 S 22 30 12 16 1020.6 1019.2 0.0
19/09:00am 15.3 10.4 7.1 58 4.1 S 22 30 12 16 1020.5 1019.1 0.0
19/08:30am 14.4 9.7 7.7 64 3.3 SSW 22 26 12 14 1020.3 1018.9 0.0
19/08:00am 13.5 9.7 7.5 67 3.0 SSW 17 20 9 11 1020.3 1018.9 0.0
19/07:30am 12.9 9.4 7.1 68 2.8 SSW 15 17 8 9 1020.2 1018.8 0.0
19/07:00am 13.1 9.6 7.1 67 2.9 SSW 15 17 8 9 1019.9 1018.5 0.0
19/06:30am 13.5 9.6 7.3 66 3.1 SSW 17 20 9 11 1019.4 1017.9 0.0
19/06:00am 13.7 9.8 7.0 64 3.3 SSW 17 20 9 11 1019.1 1017.6 0.0
19/05:30am 14.2 9.3 7.0 62 3.5 S 22 28 12 15 1018.8 1017.3 0.0
19/05:00am 14.5 9.6 6.8 60 3.8 S 22 30 12 16 1019.0 1017.5 0.0
19/04:30am 14.7 9.3 6.5 58 4.0 S 24 28 13 15 1019.0 1017.5 0.0
19/04:00am 15.1 9.7 6.4 56 4.3 S 24 30 13 16 1018.8 1017.3 0.0
19/03:30am 15.4 9.6 6.2 54 4.5 S 26 33 14 18 1018.9 1017.4 0.0
19/03:00am 15.8 9.5 5.7 51 4.9 S 28 33 15 18 1019.0 1017.5 0.0
19/02:30am 16.4 8.9 6.2 51 5.0 S 35 48 19 26 1019.1 1017.6 0.0
19/02:00am 16.9 9.6 5.5 47 5.6 S 33 44 18 24 1019.0 1017.5 0.0
19/01:30am 17.4 9.4 5.7 46 5.7 S 37 44 20 24 1019.3 1017.8 0.0
19/01:00am 17.9 9.9 5.5 44 6.1 S 37 46 20 25 1019.5 1018.0 0.0
19/12:30am 18.8 10.6 4.9 40 6.8 S 37 46 20 25 1019.3 1017.8 0.0
19/12:00am 19.3 10.4 5.0 39 7.0 S 41 52 22 28 1018.9 1017.4 0.0
 
Date/Time
CDT
Temp
°C
App
Temp
°C
Dew
Point
°C
Rel
Hum
%
Delta-T
°C
Wind Press
QNH
hPa
Press
MSL
hPa
Rain since
9am
mm
Dir  Spd
km/h
Gust
km/h
Spd
kts
Gust
kts
18/11:30pm 20.1 12.2 4.6 36 7.6 S 35 46 19 25 1018.7 1017.2 0.0
18/11:00pm 21.0 13.8 3.2 31 8.5 S 30 41 16 22 1018.5 1017.0 0.0
18/10:30pm 21.5 13.0 3.2 30 8.8 S 37 46 20 25 1018.3 1016.8 0.0
18/10:00pm 22.1 13.8 4.2 31 8.8 S 37 50 20 27 1017.7 1016.2 0.0
18/09:30pm 23.1 15.2 4.1 29 9.4 S 35 44 19 24 1017.2 1015.8 0.0
18/09:00pm 23.7 16.8 4.6 29 9.6 S 30 37 16 20 1016.9 1015.5 0.0
18/08:30pm 24.2 17.3 4.6 28 9.9 S 30 41 16 22 1016.5 1015.1 0.0
18/08:00pm 24.8 16.8 4.0 26 10.4 S 35 46 19 25 1016.1 1014.7 0.0
18/07:30pm 25.6 18.2 4.1 25 10.8 S 32 43 17 23 1015.8 1014.3 0.0
18/07:00pm 26.0 18.6 3.9 24 11.1 SSW 32 44 17 24 1015.7 1014.2 0.0
18/06:30pm 26.5 19.1 4.9 25 11.1 S 33 43 18 23 1015.7 1014.2 0.0
18/06:00pm 26.4 18.5 4.2 24 11.2 S 35 48 19 26 1015.8 1014.3 0.0
18/05:30pm 26.8 19.6 5.7 26 11.0 S 33 48 18 26 1015.7 1014.2 0.0
18/05:23pm 26.6 19.4 6.1 27 10.8 SSW 33 44 18 24 1015.7 1014.2 0.0
18/05:12pm 26.6 19.2 6.6 28 10.6 SSW 35 52 19 28 1015.7 1014.2 0.0
18/05:03pm 27.4 20.8 6.2 26 11.2 S 30 52 16 28 1015.4 1013.9 0.0
18/05:00pm 26.3 19.6 5.8 27 10.7 S 30 43 16 23 1015.7 1014.2 0.0
18/04:30pm 26.7 19.7 6.2 27 10.8 SSW 32 46 17 25 1015.9 1014.4 0.0
18/04:04pm 27.3 20.5 6.7 27 11.0 SSW 32 52 17 28 1016.2 1014.8 0.0
18/04:00pm 26.9 19.9 5.8 26 11.0 SSW 32 43 17 23 1016.3 1014.9 0.0
18/03:48pm 26.6 19.6 6.1 27 10.8 S 32 50 17 27 1016.4 1015.0 0.0
18/03:30pm 26.8 19.7 5.7 26 11.0 SSW 32 44 17 24 1016.7 1015.3 0.0
18/03:14pm 26.8 20.7 6.8 28 10.6 S 28 57 15 31 1016.9 1015.5 0.0
18/03:00pm 25.8 19.4 6.9 30 10.0 SSW 30 43 16 23 1017.0 1015.6 0.0
18/02:30pm 25.6 20.0 7.2 31 9.8 S 26 39 14 21 1017.5 1016.0 0.0
18/02:12pm 25.3 19.3 7.0 31 9.7 SSW 28 46 15 25 1017.6 1016.1 0.0
18/02:00pm 24.7 17.9 6.9 32 9.4 S 32 43 17 23 1017.8 1016.3 0.0
18/01:30pm 23.9 17.1 6.7 33 9.0 SSW 32 44 17 24 1018.2 1016.7 0.0
18/01:00pm 23.6 16.8 6.8 34 8.8 S 32 44 17 24 1018.5 1017.0 0.0
18/12:30pm 22.6 16.1 8.0 39 7.7 SSW 32 44 17 24 1018.8 1017.3 0.0
18/12:19pm 23.1 16.5 7.6 37 8.2 SSW 32 50 17 27 1018.8 1017.3 0.0
18/12:00pm 22.6 15.9 8.0 39 7.7 S 33 43 18 23 1019.0 1017.5 0.0
18/11:30am 21.2 14.1 8.1 43 6.9 S 35 44 19 24 1019.2 1017.7 0.0
18/11:00am 20.2 13.6 8.5 47 6.2 S 33 46 18 25 1019.5 1018.0 0.0
18/10:30am 19.9 12.6 8.9 49 5.8 S 37 50 20 27 1019.5 1018.0 0.0
18/10:00am 19.6 12.4 9.2 51 5.5 S 37 48 20 26 1019.4 1017.9 0.0
18/09:30am 19.1 11.6 9.6 54 5.1 S 39 50 21 27 1019.1 1017.6 0.0
18/09:00am 18.6 11.5 9.4 55 4.9 S 37 46 20 25 1018.9 1017.4 0.0
18/08:30am 17.5 12.3 10.4 63 3.8 S 28 35 15 19 1018.8 1017.3 0.0
18/08:00am 16.8 12.3 10.2 65 3.5 S 24 32 13 17 1018.5 1017.0 0.0
18/07:30am 16.3 12.0 10.8 70 3.0 S 24 30 13 16 1018.0 1016.5 0.0
18/07:00am 16.3 11.2 10.6 69 3.1 S 28 35 15 19 1017.6 1016.1 0.0
18/06:30am 16.5 11.0 10.6 68 3.2 S 30 37 16 20 1017.1 1015.7 0.0
18/06:00am 16.8 11.7 10.6 67 3.3 SSW 28 33 15 18 1016.9 1015.5 0.0
18/05:30am 17.2 12.0 10.1 63 3.8 S 28 33 15 18 1016.8 1015.4 0.0
18/05:00am 17.5 12.6 9.9 61 4.1 S 26 33 14 18 1016.6 1015.2 0.0
18/04:30am 17.8 11.7 9.9 60 4.2 S 32 39 17 21 1016.4 1015.0 0.0
18/04:00am 18.0 11.8 9.9 59 4.3 S 33 39 18 21 1016.3 1014.9 0.0
18/03:30am 18.4 12.2 10.0 58 4.5 SSW 33 41 18 22 1016.3 1014.9 0.0
18/03:00am 18.7 12.8 10.3 58 4.5 S 32 41 17 22 1016.3 1014.9 0.0
18/02:30am 19.1 12.9 10.1 56 4.9 S 33 41 18 22 1016.5 1015.1 0.0
18/02:00am 19.7 13.6 9.9 53 5.3 S 32 41 17 22 1016.5 1015.1 0.0
18/01:30am 20.2 12.5 10.0 52 5.5 S 41 48 22 26 1016.5 1015.1 0.0
18/01:00am 20.9 13.9 10.1 50 5.9 S 37 46 20 25 1016.7 1015.3 0.0
18/12:30am 21.8 15.1 9.7 46 6.6 S 35 46 19 25 1016.5 1015.1 0.0
18/12:00am 22.5 16.5 8.6 41 7.4 S 30 39 16 21 1016.2 1014.8 0.0
 
Date/Time
CDT
Temp
°C
App
Temp
°C
Dew
Point
°C
Rel
Hum
%
Delta-T
°C
Wind Press
QNH
hPa
Press
MSL
hPa
Rain since
9am
mm
Dir  Spd
km/h
Gust
km/h
Spd
kts
Gust
kts
17/11:30pm 23.3 16.1 9.0 40 7.7 S 37 44 20 24 1016.1 1014.7 0.0
17/11:00pm 24.2 18.0 7.8 35 8.8 S 30 43 16 23 1015.9 1014.4 0.0
17/10:30pm 24.9 17.7 7.5 33 9.3 S 35 43 19 23 1015.6 1014.1 0.0
17/10:00pm 25.7 19.2 6.3 29 10.2 S 30 37 16 20 1015.5 1014.0 0.0
17/09:30pm 26.3 19.3 5.8 27 10.7 S 32 39 17 21 1015.1 1013.6 0.0
17/09:00pm 26.9 20.4 6.3 27 10.9 SSW 30 37 16 20 1014.8 1013.3 0.0
17/08:30pm 27.4 20.8 6.2 26 11.2 S 30 37 16 20 1014.3 1012.8 0.0
17/08:00pm 28.0 21.4 6.2 25 11.6 SSW 30 41 16 22 1013.9 1012.4 0.0
17/07:30pm 28.7 22.0 5.5 23 12.2 SSW 30 37 16 20 1013.6 1012.1 0.0
17/07:00pm 29.4 23.4 5.5 22 12.6 SSW 26 33 14 18 1013.4 1011.9 0.0
17/06:30pm 29.7 23.0 5.7 22 12.7 SSW 30 39 16 21 1013.3 1011.8 0.0
17/06:00pm 29.7 22.3 5.1 21 12.9 S 33 44 18 24 1013.3 1011.8 0.0
17/05:30pm 29.8 22.2 5.8 22 12.8 S 35 48 19 26 1013.3 1011.8 0.0
17/05:08pm 29.7 22.5 5.7 22 12.7 SW 33 52 18 28 1013.3 1011.8 0.0
17/05:00pm 29.6 22.3 5.6 22 12.7 SSW 33 48 18 26 1013.2 1011.7 0.0
17/04:30pm 29.9 22.4 4.5 20 13.2 SSW 33 46 18 25 1013.2 1011.7 0.0
17/04:00pm 28.6 21.2 4.2 21 12.5 SSW 32 43 17 23 1013.4 1011.9 0.0
17/03:30pm 29.7 22.2 4.4 20 13.1 SSW 33 41 18 22 1013.6 1012.1 0.0
17/03:00pm 28.8 21.5 5.6 23 12.2 SSW 33 48 18 26 1013.9 1012.4 0.0
17/02:30pm 29.1 22.1 5.9 23 12.3 SSW 32 43 17 23 1014.1 1012.6 0.0
17/02:08pm 28.2 21.5 5.7 24 11.8 SSW 30 48 16 26 1014.4 1012.9 0.0
17/02:00pm 28.0 21.5 6.7 26 11.4 SSW 30 39 16 21 1014.5 1013.0 0.0
17/01:30pm 27.2 20.4 7.6 29 10.6 SSW 33 46 18 25 1014.5 1013.0 0.0
17/01:00pm 26.8 20.0 7.8 30 10.3 SW 33 44 18 24 1014.8 1013.3 0.0
17/12:30pm 26.0 19.4 8.5 33 9.5 SSW 33 46 18 25 1015.1 1013.6 0.0
17/12:00pm 25.5 18.8 9.7 37 8.8 SSW 35 44 19 24 1015.3 1013.8 0.0
17/11:30am 24.4 17.6 9.2 38 8.3 SSW 35 43 19 23 1015.3 1013.8 0.0
17/11:00am 23.7 16.9 9.3 40 7.9 SSW 35 43 19 23 1015.4 1013.9 0.0
17/10:30am 23.2 16.9 9.6 42 7.4 SSW 33 41 18 22 1015.3 1013.8 0.0
17/10:00am 22.0 15.8 9.5 45 6.8 SSW 32 39 17 21 1015.1 1013.6 0.0
17/09:30am 21.2 14.5 9.8 48 6.2 SSW 35 41 19 22 1014.9 1013.4 0.0
17/09:00am 20.2 13.6 10.0 52 5.5 SSW 35 41 19 22 1014.6 1013.1 0.0
17/08:30am 19.8 13.7 10.5 55 5.1 SSW 33 37 18 20 1014.5 1013.0 0.0
17/08:00am 19.4 13.0 10.7 57 4.8 SSW 35 43 19 23 1014.1 1012.6 0.0
17/07:30am 19.3 13.9 10.8 58 4.7 SSW 30 37 16 20 1013.6 1012.1 0.0
17/07:00am 19.6 13.8 10.9 57 4.8 SSW 32 41 17 22 1013.1 1011.6 0.0
17/06:30am 20.4 15.0 10.8 54 5.3 SSW 30 35 16 19 1012.6 1011.2 0.0
17/06:00am 21.0 15.0 10.2 50 5.9 SSW 32 39 17 21 1012.4 1011.0 0.0
17/05:30am 21.6 16.3 9.8 47 6.4 SSW 28 35 15 19 1012.0 1010.6 0.0

Other Formats:

Comma delimited format used in spreadsheet applications
http://www.bom.gov.au/fwo/IDS60801/IDS60801.95458.axf

JavaScript Object Notation format (JSON) in row-major order
http://www.bom.gov.au/fwo/IDS60801/IDS60801.95458.json